Список аэропортов
Фактическая погода:

26 июня, 23:00
Температура: +24°C (+24.0*)
Ветер: юго-восточный 5 м/с
Давление: *762 мм
гроза
в орестностях
Время (МСК)Темп. СВетерВлажностьДавлениеОблачностьОсадки
21:00+27В, 2 м/с55%1014 гПаоблачносл. дождь
22:00+26СВ, 1 м/с64%1014 гПаоблачно
23:00+25СЗ, 1 м/с70%1014 гПаоблачно
27 июня
00:00+23ЮЗ, 1 м/с77%1014 гПаоблачно
01:00+22Ю, 1 м/с83%1014 гПас прояснениями
02:00+22ЮЗ, 2 м/с85%1014 гПас прояснениями
03:00+21ЮЗ, 2 м/с86%1013 гПас прояснениями
04:00+21ЮЗ, 2 м/с87%1013 гПамалооблачно
05:00+20ЮЗ, 2 м/с87%1013 гПамалооблачно
06:00+22ЮЗ, 3 м/с78%1013 гПас прояснениямидождь
07:00+22ЮЗ, 2 м/с80%1012 гПаоблачносл. дождь
08:00+24ЮЗ, 2 м/с74%1012 гПамалооблачно
09:00+27З, 2 м/с58%1011 гПамалооблачно
10:00+30СВ, 1 м/с49%1010 гПамалооблачно
11:00+32В, 3 м/с42%1010 гПамалооблачно
12:00+33В, 4 м/с35%1009 гПаясно
13:00+33В, 3 м/с33%1009 гПамалооблачносл. дождь
14:00+32СВ, 2 м/с38%1008 гПас прояснениямидождь
15:00+30СВ, 1 м/с57%1008 гПаоблачнодождь
16:00+30В, 2 м/с55%1008 гПас прояснениямидождь
17:00+29В, 1 м/с60%1008 гПаоблачносл. дождь
18:00+29С, 1 м/с57%1008 гПас прояснениями
19:00+29Штиль 56%1007 гПас прояснениями
20:00+27ЮЗ, 1 м/с66%1007 гПас прояснениями
21:00+25З, 1 м/с73%1007 гПамалооблачно
22:00+24З, 1 м/с80%1007 гПас прояснениями
23:00+23Ю, 2 м/с85%1007 гПас прояснениями
28 июня
00:00+22Ю, 2 м/с89%1006 гПаясно
01:00+21Ю, 2 м/с89%1006 гПаясно
02:00+21ЮЗ, 2 м/с87%1006 гПаясно
03:00+20Ю, 2 м/с84%1006 гПаясно
04:00+20Ю, 2 м/с82%1005 гПаясно
05:00+20ЮЗ, 2 м/с82%1005 гПаясно
06:00+21ЮЗ, 2 м/с76%1005 гПаясно
07:00+24ЮЗ, 5 м/с62%1004 гПаясно
08:00+26ЮЗ, 5 м/с51%1004 гПамалооблачно
09:00+26З, 5 м/с44%1003 гПамалооблачно
10:00+28З, 4 м/с41%1003 гПамалооблачно
11:00+29З, 4 м/с40%1002 гПаясно
12:00+31З, 3 м/с38%1001 гПаясно
13:00+32З, 3 м/с36%1001 гПас прояснениями
14:00+33СЗ, 3 м/с33%1000 гПаясно
15:00+33СЗ, 3 м/с31%999 гПамалооблачносл. дождь
16:00+33З, 2 м/с33%999 гПас прояснениямидождь
17:00+30Ю, 2 м/с50%999 гПас прояснениямидождь
18:00+28ЮЗ, 2 м/с57%1000 гПаоблачнодождь
19:00+26ЮЗ, 3 м/с68%1000 гПаоблачносл. дождь
20:00+25ЮЗ, 4 м/с71%1001 гПаоблачно
21:00+25ЮЗ, 5 м/с70%1001 гПаоблачно